sensor_id;sensor_type;location;lat;lon;timestamp;P1;durP1;ratioP1;P2;durP2;ratioP2
54979;SDS011;44101;50.462;30.432;2022-09-13T00:00:29;321.35;;;19.08;;
54979;SDS011;44101;50.462;30.432;2022-09-13T00:02:54;202.15;;;15.60;;
54979;SDS011;44101;50.462;30.432;2022-09-13T00:05:20;301.92;;;17.70;;
54979;SDS011;44101;50.462;30.432;2022-09-13T00:07:47;169.77;;;15.02;;
54979;SDS011;44101;50.462;30.432;2022-09-13T00:10:12;361.92;;;21.00;;
54979;SDS011;44101;50.462;30.432;2022-09-13T00:12:40;242.63;;;16.38;;
54979;SDS011;44101;50.462;30.432;2022-09-13T00:15:06;469.80;;;27.63;;
54979;SDS011;44101;50.462;30.432;2022-09-13T00:17:31;198.75;;;13.48;;
54979;SDS011;44101;50.462;30.432;2022-09-13T00:19:57;301.05;;;17.85;;
54979;SDS011;44101;50.462;30.432;2022-09-13T00:22:23;183.07;;;12.25;;
54979;SDS011;44101;50.462;30.432;2022-09-13T00:24:49;498.63;;;26.13;;
54979;SDS011;44101;50.462;30.432;2022-09-13T00:27:15;387.85;;;22.00;;
54979;SDS011;44101;50.462;30.432;2022-09-13T00:29:41;580.85;;;30.90;;
54979;SDS011;44101;50.462;30.432;2022-09-13T00:32:07;439.63;;;22.48;;
54979;SDS011;44101;50.462;30.432;2022-09-13T00:34:33;460.13;;;24.00;;
54979;SDS011;44101;50.462;30.432;2022-09-13T00:36:58;609.42;;;31.85;;
54979;SDS011;44101;50.462;30.432;2022-09-13T00:39:24;492.83;;;22.92;;
54979;SDS011;44101;50.462;30.432;2022-09-13T00:41:50;734.40;;;39.30;;
54979;SDS011;44101;50.462;30.432;2022-09-13T00:45:17;994.28;;;60.17;;
54979;SDS011;44101;50.462;30.432;2022-09-13T00:47:16;657.05;;;33.25;;
54979;SDS011;44101;50.462;30.432;2022-09-13T00:49:45;601.10;;;30.13;;
54979;SDS011;44101;50.462;30.432;2022-09-13T00:52:13;461.05;;;27.25;;
54979;SDS011;44101;50.462;30.432;2022-09-13T00:54:47;469.55;;;25.13;;
54979;SDS011;44101;50.462;30.432;2022-09-13T00:57:16;476.98;;;27.40;;
54979;SDS011;44101;50.462;30.432;2022-09-13T00:59:59;500.90;;;32.25;;
54979;SDS011;44101;50.462;30.432;2022-09-13T01:02:26;717.08;;;39.90;;
54979;SDS011;44101;50.462;30.432;2022-09-13T01:04:52;517.40;;;27.33;;
54979;SDS011;44101;50.462;30.432;2022-09-13T01:07:18;595.05;;;32.13;;
54979;SDS011;44101;50.462;30.432;2022-09-13T01:09:45;474.67;;;28.48;;
54979;SDS011;44101;50.462;30.432;2022-09-13T01:14:40;390.33;;;20.02;;
54979;SDS011;44101;50.462;30.432;2022-09-13T01:17:06;252.18;;;15.70;;
54979;SDS011;44101;50.462;30.432;2022-09-13T01:19:32;336.98;;;19.02;;
54979;SDS011;44101;50.462;30.432;2022-09-13T01:30:28;138.43;;;10.65;;
54979;SDS011;44101;50.462;30.432;2022-09-13T01:44:26;168.82;;;13.25;;
54979;SDS011;44101;50.462;30.432;2022-09-13T01:47:18;42.45;;;8.55;;
54979;SDS011;44101;50.462;30.432;2022-09-13T01:49:57;49.22;;;9.27;;
54979;SDS011;44101;50.462;30.432;2022-09-13T01:55:23;13.18;;;7.13;;
54979;SDS011;44101;50.462;30.432;2022-09-13T02:01:17;9.82;;;6.38;;
54979;SDS011;44101;50.462;30.432;2022-09-13T02:06:23;14.05;;;8.13;;
54979;SDS011;44101;50.462;30.432;2022-09-13T02:09:03;10.82;;;7.82;;
54979;SDS011;44101;50.462;30.432;2022-09-13T02:11:35;11.43;;;8.45;;
54979;SDS011;44101;50.462;30.432;2022-09-13T02:14:05;12.48;;;8.10;;
54979;SDS011;44101;50.462;30.432;2022-09-13T02:16:35;10.27;;;8.30;;
54979;SDS011;44101;50.462;30.432;2022-09-13T02:19:16;14.13;;;8.88;;
54979;SDS011;44101;50.462;30.432;2022-09-13T02:21:51;10.07;;;8.35;;
54979;SDS011;44101;50.462;30.432;2022-09-13T02:24:41;15.60;;;9.07;;
54979;SDS011;44101;50.462;30.432;2022-09-13T02:27:11;13.75;;;9.00;;
54979;SDS011;44101;50.462;30.432;2022-09-13T02:29:42;12.50;;;8.82;;
54979;SDS011;44101;50.462;30.432;2022-09-13T02:32:13;11.05;;;8.52;;
54979;SDS011;44101;50.462;30.432;2022-09-13T02:34:46;10.80;;;8.63;;
54979;SDS011;44101;50.462;30.432;2022-09-13T02:37:16;12.05;;;9.07;;
54979;SDS011;44101;50.462;30.432;2022-09-13T02:39:45;13.75;;;8.35;;
54979;SDS011;44101;50.462;30.432;2022-09-13T02:42:18;14.35;;;9.05;;
54979;SDS011;44101;50.462;30.432;2022-09-13T02:44:48;8.95;;;7.25;;
54979;SDS011;44101;50.462;30.432;2022-09-13T02:52:50;10.35;;;6.50;;
54979;SDS011;44101;50.462;30.432;2022-09-13T03:03:26;7.15;;;6.45;;
54979;SDS011;44101;50.462;30.432;2022-09-13T03:05:52;12.52;;;7.40;;
54979;SDS011;44101;50.462;30.432;2022-09-13T03:08:18;9.50;;;7.05;;
54979;SDS011;44101;50.462;30.432;2022-09-13T03:10:53;9.73;;;6.95;;
54979;SDS011;44101;50.462;30.432;2022-09-13T03:16:31;8.18;;;6.28;;
54979;SDS011;44101;50.462;30.432;2022-09-13T03:22:04;11.10;;;6.35;;
54979;SDS011;44101;50.462;30.432;2022-09-13T03:30:22;6.45;;;5.55;;
54979;SDS011;44101;50.462;30.432;2022-09-13T03:32:49;8.13;;;6.25;;
54979;SDS011;44101;50.462;30.432;2022-09-13T03:43:01;9.18;;;6.25;;
54979;SDS011;44101;50.462;30.432;2022-09-13T03:45:40;6.82;;;5.78;;
54979;SDS011;44101;50.462;30.432;2022-09-13T03:48:10;9.60;;;6.63;;
54979;SDS011;44101;50.462;30.432;2022-09-13T03:50:37;6.80;;;6.15;;
54979;SDS011;44101;50.462;30.432;2022-09-13T03:53:04;10.13;;;6.55;;
54979;SDS011;44101;50.462;30.432;2022-09-13T03:55:33;10.38;;;7.20;;
54979;SDS011;44101;50.462;30.432;2022-09-13T03:58:04;9.20;;;7.65;;
54979;SDS011;44101;50.462;30.432;2022-09-13T04:00:30;10.18;;;7.32;;
54979;SDS011;44101;50.462;30.432;2022-09-13T04:02:55;14.40;;;7.95;;
54979;SDS011;44101;50.462;30.432;2022-09-13T04:05:21;14.57;;;7.68;;
54979;SDS011;44101;50.462;30.432;2022-09-13T04:07:47;14.40;;;8.55;;
54979;SDS011;44101;50.462;30.432;2022-09-13T04:10:12;16.63;;;10.18;;
54979;SDS011;44101;50.462;30.432;2022-09-13T04:12:38;20.98;;;10.18;;
54979;SDS011;44101;50.462;30.432;2022-09-13T04:15:05;14.38;;;9.77;;
54979;SDS011;44101;50.462;30.432;2022-09-13T04:17:31;13.32;;;9.48;;
54979;SDS011;44101;50.462;30.432;2022-09-13T04:19:57;32.05;;;11.52;;
54979;SDS011;44101;50.462;30.432;2022-09-13T04:22:23;17.00;;;9.65;;
54979;SDS011;44101;50.462;30.432;2022-09-13T04:24:49;18.55;;;9.43;;
54979;SDS011;44101;50.462;30.432;2022-09-13T04:27:17;15.50;;;8.98;;
54979;SDS011;44101;50.462;30.432;2022-09-13T04:29:42;24.50;;;10.10;;
54979;SDS011;44101;50.462;30.432;2022-09-13T04:32:08;19.05;;;9.50;;
54979;SDS011;44101;50.462;30.432;2022-09-13T04:34:35;17.27;;;10.05;;
54979;SDS011;44101;50.462;30.432;2022-09-13T04:37:01;21.00;;;10.10;;
54979;SDS011;44101;50.462;30.432;2022-09-13T04:39:27;70.68;;;14.50;;
54979;SDS011;44101;50.462;30.432;2022-09-13T04:41:53;302.40;;;29.50;;
54979;SDS011;44101;50.462;30.432;2022-09-13T04:44:19;102.88;;;16.92;;
54979;SDS011;44101;50.462;30.432;2022-09-13T04:46:46;70.20;;;15.15;;
54979;SDS011;44101;50.462;30.432;2022-09-13T04:49:13;36.78;;;12.65;;
54979;SDS011;44101;50.462;30.432;2022-09-13T04:51:40;35.58;;;12.23;;
54979;SDS011;44101;50.462;30.432;2022-09-13T04:54:05;27.90;;;11.82;;
54979;SDS011;44101;50.462;30.432;2022-09-13T04:56:34;23.77;;;12.00;;
54979;SDS011;44101;50.462;30.432;2022-09-13T04:59:00;25.50;;;11.50;;
54979;SDS011;44101;50.462;30.432;2022-09-13T05:01:26;19.15;;;11.18;;
54979;SDS011;44101;50.462;30.432;2022-09-13T05:03:51;22.42;;;10.85;;
54979;SDS011;44101;50.462;30.432;2022-09-13T05:06:18;21.02;;;11.60;;
54979;SDS011;44101;50.462;30.432;2022-09-13T05:08:52;21.73;;;10.45;;
54979;SDS011;44101;50.462;30.432;2022-09-13T05:11:20;21.48;;;11.35;;
54979;SDS011;44101;50.462;30.432;2022-09-13T05:13:53;19.95;;;11.38;;
54979;SDS011;44101;50.462;30.432;2022-09-13T05:16:21;27.15;;;12.02;;
54979;SDS011;44101;50.462;30.432;2022-09-13T05:18:48;34.42;;;13.07;;
54979;SDS011;44101;50.462;30.432;2022-09-13T05:21:14;60.67;;;14.93;;
54979;SDS011;44101;50.462;30.432;2022-09-13T05:23:40;25.60;;;13.15;;
54979;SDS011;44101;50.462;30.432;2022-09-13T05:26:06;28.05;;;12.30;;
54979;SDS011;44101;50.462;30.432;2022-09-13T05:28:32;23.05;;;11.70;;
54979;SDS011;44101;50.462;30.432;2022-09-13T05:31:01;21.98;;;11.80;;
54979;SDS011;44101;50.462;30.432;2022-09-13T05:33:29;19.35;;;11.75;;
54979;SDS011;44101;50.462;30.432;2022-09-13T05:35:56;19.45;;;12.05;;
54979;SDS011;44101;50.462;30.432;2022-09-13T05:38:22;22.80;;;11.77;;
54979;SDS011;44101;50.462;30.432;2022-09-13T05:40:55;27.42;;;13.20;;
54979;SDS011;44101;50.462;30.432;2022-09-13T05:43:22;17.42;;;12.07;;
54979;SDS011;44101;50.462;30.432;2022-09-13T05:45:48;320.70;;;21.75;;
54979;SDS011;44101;50.462;30.432;2022-09-13T05:48:14;322.40;;;27.10;;
54979;SDS011;44101;50.462;30.432;2022-09-13T05:50:40;467.15;;;41.72;;
54979;SDS011;44101;50.462;30.432;2022-09-13T05:53:05;18.33;;;10.88;;
54979;SDS011;44101;50.462;30.432;2022-09-13T05:55:31;22.33;;;11.13;;
54979;SDS011;44101;50.462;30.432;2022-09-13T05:57:58;15.32;;;10.27;;
54979;SDS011;44101;50.462;30.432;2022-09-13T06:00:25;14.00;;;9.73;;
54979;SDS011;44101;50.462;30.432;2022-09-13T06:02:51;12.90;;;8.80;;
54979;SDS011;44101;50.462;30.432;2022-09-13T06:05:17;13.60;;;8.98;;
54979;SDS011;44101;50.462;30.432;2022-09-13T06:07:42;13.40;;;9.77;;
54979;SDS011;44101;50.462;30.432;2022-09-13T06:10:09;16.42;;;9.50;;
54979;SDS011;44101;50.462;30.432;2022-09-13T06:12:35;31.65;;;11.40;;
54979;SDS011;44101;50.462;30.432;2022-09-13T06:15:01;18.15;;;10.63;;
54979;SDS011;44101;50.462;30.432;2022-09-13T06:17:27;13.85;;;10.30;;
54979;SDS011;44101;50.462;30.432;2022-09-13T06:19:52;14.55;;;9.95;;
54979;SDS011;44101;50.462;30.432;2022-09-13T06:22:18;22.80;;;10.88;;
54979;SDS011;44101;50.462;30.432;2022-09-13T06:24:44;15.52;;;10.32;;
54979;SDS011;44101;50.462;30.432;2022-09-13T06:27:10;21.13;;;11.65;;
54979;SDS011;44101;50.462;30.432;2022-09-13T06:29:35;17.95;;;10.55;;
54979;SDS011;44101;50.462;30.432;2022-09-13T06:32:02;46.13;;;11.90;;
54979;SDS011;44101;50.462;30.432;2022-09-13T06:34:27;40.10;;;11.73;;
54979;SDS011;44101;50.462;30.432;2022-09-13T06:36:53;133.63;;;18.08;;
54979;SDS011;44101;50.462;30.432;2022-09-13T06:39:20;84.88;;;15.07;;
54979;SDS011;44101;50.462;30.432;2022-09-13T06:41:46;18.80;;;10.43;;
54979;SDS011;44101;50.462;30.432;2022-09-13T06:44:12;17.55;;;11.10;;
54979;SDS011;44101;50.462;30.432;2022-09-13T06:46:38;23.25;;;11.15;;
54979;SDS011;44101;50.462;30.432;2022-09-13T06:49:05;14.02;;;10.63;;
54979;SDS011;44101;50.462;30.432;2022-09-13T06:51:32;28.20;;;10.57;;
54979;SDS011;44101;50.462;30.432;2022-09-13T06:54:00;21.45;;;11.73;;
54979;SDS011;44101;50.462;30.432;2022-09-13T06:56:32;51.13;;;12.75;;
54979;SDS011;44101;50.462;30.432;2022-09-13T06:59:03;37.17;;;11.20;;
54979;SDS011;44101;50.462;30.432;2022-09-13T07:01:32;30.83;;;10.52;;
54979;SDS011;44101;50.462;30.432;2022-09-13T07:04:00;28.95;;;11.18;;
54979;SDS011;44101;50.462;30.432;2022-09-13T07:06:29;50.13;;;12.43;;
54979;SDS011;44101;50.462;30.432;2022-09-13T07:08:57;89.70;;;15.00;;
54979;SDS011;44101;50.462;30.432;2022-09-13T07:11:25;15.48;;;11.43;;
54979;SDS011;44101;50.462;30.432;2022-09-13T07:13:53;14.75;;;11.32;;
54979;SDS011;44101;50.462;30.432;2022-09-13T07:16:21;13.70;;;11.05;;
54979;SDS011;44101;50.462;30.432;2022-09-13T07:18:52;14.23;;;10.80;;
54979;SDS011;44101;50.462;30.432;2022-09-13T07:21:19;15.02;;;11.32;;
54979;SDS011;44101;50.462;30.432;2022-09-13T07:23:46;16.83;;;11.50;;
54979;SDS011;44101;50.462;30.432;2022-09-13T07:26:12;22.95;;;11.93;;
54979;SDS011;44101;50.462;30.432;2022-09-13T07:28:38;16.85;;;10.93;;
54979;SDS011;44101;50.462;30.432;2022-09-13T07:31:07;13.52;;;10.25;;
54979;SDS011;44101;50.462;30.432;2022-09-13T07:33:41;16.40;;;10.48;;
54979;SDS011;44101;50.462;30.432;2022-09-13T07:36:08;17.08;;;10.20;;
54979;SDS011;44101;50.462;30.432;2022-09-13T07:38:36;17.02;;;10.82;;
54979;SDS011;44101;50.462;30.432;2022-09-13T07:41:04;19.35;;;11.25;;
54979;SDS011;44101;50.462;30.432;2022-09-13T07:43:33;17.67;;;10.85;;
54979;SDS011;44101;50.462;30.432;2022-09-13T07:46:00;13.90;;;10.25;;
54979;SDS011;44101;50.462;30.432;2022-09-13T07:48:28;15.63;;;11.30;;
54979;SDS011;44101;50.462;30.432;2022-09-13T07:51:05;20.48;;;11.00;;
54979;SDS011;44101;50.462;30.432;2022-09-13T07:53:32;15.98;;;9.82;;
54979;SDS011;44101;50.462;30.432;2022-09-13T07:56:01;13.80;;;10.43;;
54979;SDS011;44101;50.462;30.432;2022-09-13T07:58:28;13.73;;;10.68;;
54979;SDS011;44101;50.462;30.432;2022-09-13T08:00:56;16.00;;;10.43;;
54979;SDS011;44101;50.462;30.432;2022-09-13T08:03:28;12.70;;;9.60;;
54979;SDS011;44101;50.462;30.432;2022-09-13T08:05:55;17.55;;;9.82;;
54979;SDS011;44101;50.462;30.432;2022-09-13T08:08:20;14.93;;;10.15;;
54979;SDS011;44101;50.462;30.432;2022-09-13T08:10:46;19.55;;;10.23;;
54979;SDS011;44101;50.462;30.432;2022-09-13T08:13:14;14.65;;;10.20;;
54979;SDS011;44101;50.462;30.432;2022-09-13T08:15:40;16.60;;;9.85;;
54979;SDS011;44101;50.462;30.432;2022-09-13T08:18:05;12.55;;;9.98;;
54979;SDS011;44101;50.462;30.432;2022-09-13T08:20:34;15.75;;;9.82;;
54979;SDS011;44101;50.462;30.432;2022-09-13T08:23:04;14.85;;;9.88;;
54979;SDS011;44101;50.462;30.432;2022-09-13T08:25:34;15.73;;;10.48;;
54979;SDS011;44101;50.462;30.432;2022-09-13T08:28:07;14.43;;;9.90;;
54979;SDS011;44101;50.462;30.432;2022-09-13T08:30:35;14.32;;;9.88;;
54979;SDS011;44101;50.462;30.432;2022-09-13T08:33:04;16.40;;;10.70;;
54979;SDS011;44101;50.462;30.432;2022-09-13T08:35:31;14.27;;;10.40;;
54979;SDS011;44101;50.462;30.432;2022-09-13T08:37:58;12.40;;;10.18;;
54979;SDS011;44101;50.462;30.432;2022-09-13T08:40:25;15.18;;;10.63;;
54979;SDS011;44101;50.462;30.432;2022-09-13T08:46:27;11.55;;;9.80;;
54979;SDS011;44101;50.462;30.432;2022-09-13T08:48:49;16.17;;;9.82;;
54979;SDS011;44101;50.462;30.432;2022-09-13T08:51:35;12.95;;;10.18;;
54979;SDS011;44101;50.462;30.432;2022-09-13T08:54:05;16.45;;;10.55;;
54979;SDS011;44101;50.462;30.432;2022-09-13T08:59:47;14.95;;;9.30;;
54979;SDS011;44101;50.462;30.432;2022-09-13T09:07:33;15.52;;;10.88;;
54979;SDS011;44101;50.462;30.432;2022-09-13T09:10:05;25.65;;;11.43;;
54979;SDS011;44101;50.462;30.432;2022-09-13T09:12:41;14.05;;;9.32;;
54979;SDS011;44101;50.462;30.432;2022-09-13T09:15:23;13.43;;;9.57;;
54979;SDS011;44101;50.462;30.432;2022-09-13T09:17:52;17.48;;;9.75;;
54979;SDS011;44101;50.462;30.432;2022-09-13T09:22:51;14.60;;;9.27;;
54979;SDS011;44101;50.462;30.432;2022-09-13T09:25:22;14.80;;;8.18;;
54979;SDS011;44101;50.462;30.432;2022-09-13T09:27:50;12.88;;;8.60;;
54979;SDS011;44101;50.462;30.432;2022-09-13T09:30:17;13.07;;;8.75;;
54979;SDS011;44101;50.462;30.432;2022-09-13T09:32:49;20.10;;;10.00;;
54979;SDS011;44101;50.462;30.432;2022-09-13T09:38:35;14.73;;;8.52;;
54979;SDS011;44101;50.462;30.432;2022-09-13T09:41:16;12.45;;;8.25;;
54979;SDS011;44101;50.462;30.432;2022-09-13T09:46:49;13.30;;;9.00;;
54979;SDS011;44101;50.462;30.432;2022-09-13T09:49:30;15.50;;;9.40;;
54979;SDS011;44101;50.462;30.432;2022-09-13T09:52:18;14.63;;;8.85;;
54979;SDS011;44101;50.462;30.432;2022-09-13T09:54:48;13.93;;;8.38;;
54979;SDS011;44101;50.462;30.432;2022-09-13T09:57:14;15.98;;;8.48;;
54979;SDS011;44101;50.462;30.432;2022-09-13T09:59:42;16.33;;;8.10;;
54979;SDS011;44101;50.462;30.432;2022-09-13T10:02:18;17.48;;;7.32;;
54979;SDS011;44101;50.462;30.432;2022-09-13T10:04:53;14.52;;;7.00;;
54979;SDS011;44101;50.462;30.432;2022-09-13T10:07:23;10.00;;;6.95;;
54979;SDS011;44101;50.462;30.432;2022-09-13T10:10:02;11.20;;;6.68;;
54979;SDS011;44101;50.462;30.432;2022-09-13T10:12:34;15.90;;;7.35;;
54979;SDS011;44101;50.462;30.432;2022-09-13T10:15:14;8.20;;;6.43;;
54979;SDS011;44101;50.462;30.432;2022-09-13T10:17:42;14.15;;;6.85;;
54979;SDS011;44101;50.462;30.432;2022-09-13T10:20:24;15.95;;;7.55;;
54979;SDS011;44101;50.462;30.432;2022-09-13T10:23:16;14.50;;;7.20;;
54979;SDS011;44101;50.462;30.432;2022-09-13T10:28:33;9.52;;;6.50;;
54979;SDS011;44101;50.462;30.432;2022-09-13T10:31:07;10.88;;;6.50;;
54979;SDS011;44101;50.462;30.432;2022-09-13T10:33:40;10.68;;;7.10;;
54979;SDS011;44101;50.462;30.432;2022-09-13T10:36:16;13.07;;;6.57;;
54979;SDS011;44101;50.462;30.432;2022-09-13T10:38:50;14.10;;;6.75;;
54979;SDS011;44101;50.462;30.432;2022-09-13T10:41:21;7.28;;;5.57;;
54979;SDS011;44101;50.462;30.432;2022-09-13T10:44:03;9.38;;;5.60;;
54979;SDS011;44101;50.462;30.432;2022-09-13T10:46:34;10.63;;;5.90;;
54979;SDS011;44101;50.462;30.432;2022-09-13T10:49:03;8.45;;;5.82;;
54979;SDS011;44101;50.462;30.432;2022-09-13T10:51:33;10.65;;;6.28;;
54979;SDS011;44101;50.462;30.432;2022-09-13T10:54:22;8.48;;;6.35;;
54979;SDS011;44101;50.462;30.432;2022-09-13T10:56:48;19.15;;;6.47;;
54979;SDS011;44101;50.462;30.432;2022-09-13T11:04:28;9.68;;;5.68;;
54979;SDS011;44101;50.462;30.432;2022-09-13T11:09:31;6.82;;;5.53;;
54979;SDS011;44101;50.462;30.432;2022-09-13T11:20:08;11.70;;;6.15;;
54979;SDS011;44101;50.462;30.432;2022-09-13T11:25:53;12.02;;;6.53;;
54979;SDS011;44101;50.462;30.432;2022-09-13T11:34:11;14.88;;;6.68;;
54979;SDS011;44101;50.462;30.432;2022-09-13T11:45:27;9.02;;;5.85;;
54979;SDS011;44101;50.462;30.432;2022-09-13T11:50:22;9.73;;;6.07;;
54979;SDS011;44101;50.462;30.432;2022-09-13T11:55:31;10.82;;;6.55;;
54979;SDS011;44101;50.462;30.432;2022-09-13T11:58:05;10.77;;;6.28;;
54979;SDS011;44101;50.462;30.432;2022-09-13T12:00:53;12.15;;;6.55;;
54979;SDS011;44101;50.462;30.432;2022-09-13T12:03:33;10.77;;;7.03;;
54979;SDS011;44101;50.462;30.432;2022-09-13T12:09:31;9.70;;;6.38;;
54979;SDS011;44101;50.462;30.432;2022-09-13T12:12:03;13.52;;;6.40;;
54979;SDS011;44101;50.462;30.432;2022-09-13T12:14:36;13.88;;;7.45;;
54979;SDS011;44101;50.462;30.432;2022-09-13T12:17:25;13.93;;;6.85;;
54979;SDS011;44101;50.462;30.432;2022-09-13T12:19:57;18.48;;;6.63;;
54979;SDS011;44101;50.462;30.432;2022-09-13T12:22:26;13.73;;;7.20;;
54979;SDS011;44101;50.462;30.432;2022-09-13T12:24:58;12.73;;;6.97;;
54979;SDS011;44101;50.462;30.432;2022-09-13T12:27:36;16.65;;;7.00;;
54979;SDS011;44101;50.462;30.432;2022-09-13T12:30:06;12.50;;;7.13;;
54979;SDS011;44101;50.462;30.432;2022-09-13T12:32:46;13.18;;;7.43;;
54979;SDS011;44101;50.462;30.432;2022-09-13T12:38:12;15.13;;;7.22;;
54979;SDS011;44101;50.462;30.432;2022-09-13T12:43:16;12.73;;;6.47;;
54979;SDS011;44101;50.462;30.432;2022-09-13T12:53:55;12.38;;;7.10;;
54979;SDS011;44101;50.462;30.432;2022-09-13T13:04:59;11.57;;;5.93;;
54979;SDS011;44101;50.462;30.432;2022-09-13T13:07:28;13.13;;;6.78;;
54979;SDS011;44101;50.462;30.432;2022-09-13T13:09:59;10.95;;;6.70;;
54979;SDS011;44101;50.462;30.432;2022-09-13T13:12:31;10.40;;;7.45;;
54979;SDS011;44101;50.462;30.432;2022-09-13T13:17:51;11.60;;;6.57;;
54979;SDS011;44101;50.462;30.432;2022-09-13T13:23:31;12.48;;;6.43;;
54979;SDS011;44101;50.462;30.432;2022-09-13T13:31:21;11.20;;;5.80;;
54979;SDS011;44101;50.462;30.432;2022-09-13T13:39:11;12.85;;;6.05;;
54979;SDS011;44101;50.462;30.432;2022-09-13T13:41:53;11.25;;;5.75;;
54979;SDS011;44101;50.462;30.432;2022-09-13T13:49:39;8.93;;;5.82;;
54979;SDS011;44101;50.462;30.432;2022-09-13T14:00:28;13.77;;;5.70;;
54979;SDS011;44101;50.462;30.432;2022-09-13T14:05:52;12.35;;;5.75;;
54979;SDS011;44101;50.462;30.432;2022-09-13T14:20:17;7.78;;;5.00;;
54979;SDS011;44101;50.462;30.432;2022-09-13T14:22:45;6.90;;;5.22;;
54979;SDS011;44101;50.462;30.432;2022-09-13T14:27:45;7.57;;;5.30;;
54979;SDS011;44101;50.462;30.432;2022-09-13T14:30:25;10.10;;;5.55;;
54979;SDS011;44101;50.462;30.432;2022-09-13T14:32:55;8.60;;;5.30;;
54979;SDS011;44101;50.462;30.432;2022-09-13T14:38:09;7.07;;;5.38;;
54979;SDS011;44101;50.462;30.432;2022-09-13T14:40:47;11.50;;;6.15;;
54979;SDS011;44101;50.462;30.432;2022-09-13T14:43:33;8.30;;;5.25;;
54979;SDS011;44101;50.462;30.432;2022-09-13T14:46:01;9.43;;;6.43;;
54979;SDS011;44101;50.462;30.432;2022-09-13T14:48:50;7.78;;;6.60;;
54979;SDS011;44101;50.462;30.432;2022-09-13T14:51:22;7.03;;;5.80;;
54979;SDS011;44101;50.462;30.432;2022-09-13T14:53:53;8.80;;;6.07;;
54979;SDS011;44101;50.462;30.432;2022-09-13T14:56:32;7.70;;;6.47;;
54979;SDS011;44101;50.462;30.432;2022-09-13T14:59:10;10.45;;;5.95;;
54979;SDS011;44101;50.462;30.432;2022-09-13T15:01:41;9.10;;;5.75;;
54979;SDS011;44101;50.462;30.432;2022-09-13T15:04:06;13.73;;;6.32;;
54979;SDS011;44101;50.462;30.432;2022-09-13T15:06:34;10.95;;;6.18;;
54979;SDS011;44101;50.462;30.432;2022-09-13T15:11:37;12.77;;;6.20;;
54979;SDS011;44101;50.462;30.432;2022-09-13T15:14:15;10.02;;;5.90;;
54979;SDS011;44101;50.462;30.432;2022-09-13T15:16:51;9.40;;;6.20;;
54979;SDS011;44101;50.462;30.432;2022-09-13T15:19:29;12.15;;;6.72;;
54979;SDS011;44101;50.462;30.432;2022-09-13T15:22:01;10.02;;;5.70;;
54979;SDS011;44101;50.462;30.432;2022-09-13T15:24:54;12.43;;;5.93;;
54979;SDS011;44101;50.462;30.432;2022-09-13T15:27:25;11.63;;;5.40;;
54979;SDS011;44101;50.462;30.432;2022-09-13T15:30:00;11.48;;;6.68;;
54979;SDS011;44101;50.462;30.432;2022-09-13T15:32:29;10.38;;;5.15;;
54979;SDS011;44101;50.462;30.432;2022-09-13T15:34:57;11.38;;;5.43;;
54979;SDS011;44101;50.462;30.432;2022-09-13T15:37:28;5.70;;;4.88;;
54979;SDS011;44101;50.462;30.432;2022-09-13T15:40:16;7.07;;;5.15;;
54979;SDS011;44101;50.462;30.432;2022-09-13T15:45:11;7.68;;;4.22;;
54979;SDS011;44101;50.462;30.432;2022-09-13T15:47:37;7.90;;;4.82;;
54979;SDS011;44101;50.462;30.432;2022-09-13T15:50:03;6.35;;;3.97;;
54979;SDS011;44101;50.462;30.432;2022-09-13T15:52:29;8.13;;;4.68;;
54979;SDS011;44101;50.462;30.432;2022-09-13T15:54:55;5.20;;;4.68;;
54979;SDS011;44101;50.462;30.432;2022-09-13T15:57:24;7.75;;;4.03;;
54979;SDS011;44101;50.462;30.432;2022-09-13T15:59:52;6.60;;;4.78;;
54979;SDS011;44101;50.462;30.432;2022-09-13T16:02:21;8.10;;;4.60;;
54979;SDS011;44101;50.462;30.432;2022-09-13T16:04:49;7.40;;;4.40;;
54979;SDS011;44101;50.462;30.432;2022-09-13T16:07:15;10.02;;;4.88;;
54979;SDS011;44101;50.462;30.432;2022-09-13T16:09:42;7.85;;;5.28;;
54979;SDS011;44101;50.462;30.432;2022-09-13T16:12:08;10.82;;;5.40;;
54979;SDS011;44101;50.462;30.432;2022-09-13T16:14:36;6.25;;;4.82;;
54979;SDS011;44101;50.462;30.432;2022-09-13T16:17:04;5.85;;;4.50;;
54979;SDS011;44101;50.462;30.432;2022-09-13T16:19:32;8.90;;;4.88;;
54979;SDS011;44101;50.462;30.432;2022-09-13T16:21:59;5.55;;;4.40;;
54979;SDS011;44101;50.462;30.432;2022-09-13T16:24:24;4.68;;;4.00;;
54979;SDS011;44101;50.462;30.432;2022-09-13T16:26:50;9.10;;;4.88;;
54979;SDS011;44101;50.462;30.432;2022-09-13T16:29:17;6.95;;;4.63;;
54979;SDS011;44101;50.462;30.432;2022-09-13T16:31:42;11.43;;;4.55;;
54979;SDS011;44101;50.462;30.432;2022-09-13T16:34:08;17.73;;;4.65;;
54979;SDS011;44101;50.462;30.432;2022-09-13T16:36:34;6.22;;;5.00;;
54979;SDS011;44101;50.462;30.432;2022-09-13T16:39:01;7.18;;;5.00;;
54979;SDS011;44101;50.462;30.432;2022-09-13T16:41:27;8.10;;;5.13;;
54979;SDS011;44101;50.462;30.432;2022-09-13T16:43:53;6.20;;;5.35;;
54979;SDS011;44101;50.462;30.432;2022-09-13T16:46:20;10.27;;;4.93;;
54979;SDS011;44101;50.462;30.432;2022-09-13T16:48:53;9.95;;;4.93;;
54979;SDS011;44101;50.462;30.432;2022-09-13T16:51:19;8.57;;;5.28;;
54979;SDS011;44101;50.462;30.432;2022-09-13T16:53:49;5.60;;;4.63;;
54979;SDS011;44101;50.462;30.432;2022-09-13T16:56:17;5.93;;;4.43;;
54979;SDS011;44101;50.462;30.432;2022-09-13T16:58:45;7.25;;;4.63;;
54979;SDS011;44101;50.462;30.432;2022-09-13T17:01:14;5.80;;;4.53;;
54979;SDS011;44101;50.462;30.432;2022-09-13T17:03:42;5.43;;;4.10;;
54979;SDS011;44101;50.462;30.432;2022-09-13T17:06:09;6.63;;;4.53;;
54979;SDS011;44101;50.462;30.432;2022-09-13T17:08:40;5.05;;;3.50;;
54979;SDS011;44101;50.462;30.432;2022-09-13T17:11:11;5.80;;;3.63;;
54979;SDS011;44101;50.462;30.432;2022-09-13T17:13:38;6.20;;;3.97;;
54979;SDS011;44101;50.462;30.432;2022-09-13T17:16:06;6.03;;;3.58;;
54979;SDS011;44101;50.462;30.432;2022-09-13T17:18:43;3.50;;;3.20;;
54979;SDS011;44101;50.462;30.432;2022-09-13T17:21:10;4.50;;;3.33;;
54979;SDS011;44101;50.462;30.432;2022-09-13T17:23:35;5.05;;;3.47;;
54979;SDS011;44101;50.462;30.432;2022-09-13T17:26:01;4.05;;;3.30;;
54979;SDS011;44101;50.462;30.432;2022-09-13T17:28:26;5.05;;;4.03;;
54979;SDS011;44101;50.462;30.432;2022-09-13T17:30:53;6.72;;;3.42;;
54979;SDS011;44101;50.462;30.432;2022-09-13T17:33:19;10.40;;;5.07;;
54979;SDS011;44101;50.462;30.432;2022-09-13T17:35:45;6.30;;;3.58;;
54979;SDS011;44101;50.462;30.432;2022-09-13T17:38:10;9.90;;;5.20;;
54979;SDS011;44101;50.462;30.432;2022-09-13T17:40:36;6.03;;;3.47;;
54979;SDS011;44101;50.462;30.432;2022-09-13T17:43:01;3.97;;;3.47;;
54979;SDS011;44101;50.462;30.432;2022-09-13T17:45:28;5.90;;;3.70;;
54979;SDS011;44101;50.462;30.432;2022-09-13T17:47:55;8.55;;;3.95;;
54979;SDS011;44101;50.462;30.432;2022-09-13T17:50:21;6.22;;;4.10;;
54979;SDS011;44101;50.462;30.432;2022-09-13T17:52:47;5.82;;;3.78;;
54979;SDS011;44101;50.462;30.432;2022-09-13T17:55:13;4.47;;;3.55;;
54979;SDS011;44101;50.462;30.432;2022-09-13T17:57:39;9.43;;;4.10;;
54979;SDS011;44101;50.462;30.432;2022-09-13T18:00:05;6.93;;;4.47;;